Terminal Aerodrome Forecast
Issued by NWS

Home | Current Version | Previous Version | Text Only | Print | Product List | Glossary On
Versions: 1 2 3 4 5 6 7 8 9 10 11 12 13 14 15 16 17 18 19 20
614
FTUS43 KLSX 122321
TAFCPS
TAF
KCPS 122321Z 1300/1324 32012KT P6SM SCT250
     FM130900 35007KT P6SM SCT250
     FM132200 06004KT P6SM BKN130=

USA.gov is the U.S. government's official web portal to all federal, state and local government web resources and services.